Time;durP1;ratioP1;P1;durP2;ratioP2;P2;SDS_P1;SDS_P2;PMS_P1;PMS_P2;Temp;Humidity;BMP_temperature;BMP_pressure;BME280_temperature;BME280_humidity;BME280_pressure;Samples;Min_cycle;Max_cycle;Signal;HPM_P1;HPM_P2
2021/08/16 00:00:27;;;;;;;3.83;1.73;;;22.10;70.30;;;;;;4972281;28;20940;-44
2021/08/16 00:02:54;;;;;;;2.37;1.53;;;22.00;70.30;;;;;;4973990;28;20633;-43
2021/08/16 00:05:21;;;;;;;3.63;1.97;;;22.10;70.10;;;;;;4975254;28;20538;-43
2021/08/16 00:07:51;;;;;;;5.37;2.60;;;22.00;69.90;;;;;;4968991;28;20464;-43
2021/08/16 00:10:18;;;;;;;1.87;1.60;;;22.00;69.90;;;;;;4981102;28;20824;-44
2021/08/16 00:12:45;;;;;;;2.00;1.67;;;22.00;69.90;;;;;;4972299;28;20485;-44
2021/08/16 00:15:14;;;;;;;4.13;1.70;;;22.00;70.10;;;;;;4970495;28;20664;-43
2021/08/16 00:17:41;;;;;;;2.33;1.90;;;22.00;70.00;;;;;;4971637;28;21076;-44
2021/08/16 00:20:09;;;;;;;1.90;1.53;;;22.00;70.00;;;;;;4974210;28;20458;-44
2021/08/16 00:22:36;;;;;;;2.07;1.70;;;22.00;69.90;;;;;;4983164;28;20469;-43
2021/08/16 00:25:03;;;;;;;2.60;1.90;;;22.00;70.10;;;;;;4985763;28;20462;-43
2021/08/16 00:27:30;;;;;;;3.10;1.70;;;22.00;70.30;;;;;;4972494;28;21238;-44
2021/08/16 00:29:57;;;;;;;2.20;1.40;;;21.90;70.40;;;;;;4976278;28;20466;-43
2021/08/16 00:32:24;;;;;;;3.33;1.70;;;21.90;70.40;;;;;;4976244;28;20503;-43
2021/08/16 00:34:51;;;;;;;3.30;2.30;;;22.00;70.40;;;;;;4974469;28;20501;-43
2021/08/16 00:37:18;;;;;;;4.13;3.20;;;22.00;70.30;;;;;;4970977;28;20466;-43
2021/08/16 00:39:44;;;;;;;3.10;2.17;;;22.00;70.20;;;;;;4975106;28;20457;-43
2021/08/16 00:42:12;;;;;;;5.63;2.77;;;22.00;70.20;;;;;;4969475;28;20972;-43
2021/08/16 00:44:40;;;;;;;4.40;2.03;;;22.00;70.20;;;;;;4975027;28;20558;-44
2021/08/16 00:47:07;;;;;;;1.80;1.70;;;21.90;70.20;;;;;;4974964;28;20887;-44
2021/08/16 00:49:35;;;;;;;3.33;2.07;;;21.90;70.50;;;;;;4984473;28;20461;-43
2021/08/16 00:52:04;;;;;;;3.80;2.20;;;22.00;70.50;;;;;;5004279;28;20460;-43
2021/08/16 00:54:31;;;;;;;2.90;2.30;;;22.00;70.60;;;;;;4988857;28;20477;-44
2021/08/16 00:57:02;;;;;;;3.80;1.90;;;22.00;70.60;;;;;;4968074;28;20458;-43
2021/08/16 00:59:30;;;;;;;2.60;2.10;;;21.90;70.80;;;;;;5014740;28;20531;-43
2021/08/16 01:01:57;;;;;;;2.97;1.83;;;22.00;71.00;;;;;;4966388;28;20467;-43
2021/08/16 01:04:30;;;;;;;2.87;2.47;;;22.00;71.30;;;;;;4978124;28;20591;-43
2021/08/16 01:06:57;;;;;;;2.93;2.10;;;21.90;71.40;;;;;;4981544;28;20465;-43
2021/08/16 01:09:24;;;;;;;2.50;2.30;;;21.90;71.50;;;;;;4979502;28;20473;-43
2021/08/16 01:11:51;;;;;;;3.23;2.80;;;21.90;71.70;;;;;;4972942;28;20482;-43
2021/08/16 01:14:19;;;;;;;3.90;3.00;;;21.90;71.70;;;;;;4965062;28;20467;-44
2021/08/16 01:16:50;;;;;;;4.60;2.37;;;21.90;71.90;;;;;;4983458;28;20576;-44
2021/08/16 01:19:20;;;;;;;3.43;2.40;;;21.80;72.20;;;;;;4973728;28;20462;-44
2021/08/16 01:21:46;;;;;;;5.70;3.17;;;21.80;72.30;;;;;;4973366;28;20454;-43
2021/08/16 01:24:15;;;;;;;3.57;2.90;;;21.80;72.50;;;;;;4970670;28;20459;-44
2021/08/16 01:26:42;;;;;;;5.10;3.40;;;21.80;72.60;;;;;;4975945;28;20496;-44
2021/08/16 01:29:18;;;;;;;4.07;2.60;;;21.70;72.70;;;;;;5011486;28;20544;-44
2021/08/16 01:31:56;;;;;;;4.40;2.50;;;21.70;72.70;;;;;;4963842;28;20466;-43
2021/08/16 01:34:23;;;;;;;7.93;3.03;;;21.70;72.50;;;;;;4980263;28;20829;-43
2021/08/16 01:36:50;;;;;;;5.43;2.50;;;21.80;71.60;;;;;;4980643;28;20580;-44
2021/08/16 01:39:17;;;;;;;4.43;3.70;;;21.70;71.60;;;;;;4979246;28;20927;-43
2021/08/16 01:41:48;;;;;;;4.57;3.43;;;21.80;71.50;;;;;;4983101;28;20466;-43
2021/08/16 01:44:17;;;;;;;4.93;3.10;;;21.80;71.40;;;;;;4981695;28;20803;-43
2021/08/16 01:46:44;;;;;;;5.53;3.47;;;21.80;71.40;;;;;;4974052;28;20458;-48
2021/08/16 01:49:12;;;;;;;4.33;3.30;;;21.80;71.30;;;;;;4968660;28;20466;-44
2021/08/16 01:51:40;;;;;;;5.20;3.70;;;21.90;71.10;;;;;;4972394;28;20475;-44
2021/08/16 01:54:09;;;;;;;7.87;3.67;;;21.90;71.20;;;;;;4970138;28;20994;-44
2021/08/16 01:56:37;;;;;;;8.27;3.57;;;21.90;71.30;;;;;;4978642;28;21009;-43
2021/08/16 01:59:04;;;;;;;4.40;3.10;;;21.90;71.30;;;;;;4999317;28;20771;-43
2021/08/16 02:01:31;;;;;;;4.00;2.77;;;22.00;71.00;;;;;;4971034;28;20840;-43
2021/08/16 02:03:59;;;;;;;6.43;3.63;;;22.00;71.10;;;;;;4976072;28;20467;-43
2021/08/16 02:06:26;;;;;;;6.20;3.43;;;22.00;71.10;;;;;;4983950;28;20455;-43
2021/08/16 02:08:52;;;;;;;7.40;3.67;;;22.00;71.20;;;;;;4970674;28;20499;-43
2021/08/16 02:11:20;;;;;;;4.73;3.00;;;22.00;71.30;;;;;;4971473;28;20971;-43
2021/08/16 02:13:47;;;;;;;4.93;3.00;;;22.00;71.20;;;;;;4967063;28;20477;-43
2021/08/16 02:16:14;;;;;;;6.60;3.20;;;22.00;71.20;;;;;;4977006;28;20941;-43
2021/08/16 02:18:41;;;;;;;3.87;3.20;;;22.00;71.50;;;;;;4971753;28;20461;-44
2021/08/16 02:21:08;;;;;;;3.30;2.80;;;22.00;71.50;;;;;;4970623;28;20486;-43
2021/08/16 02:23:34;;;;;;;5.10;3.20;;;22.00;71.40;;;;;;4976282;28;20465;-43
2021/08/16 02:26:01;;;;;;;6.77;3.60;;;22.00;71.50;;;;;;4971115;28;21874;-44
2021/08/16 02:28:28;;;;;;;6.87;4.50;;;22.00;71.10;;;;;;4973825;28;20480;-43
2021/08/16 02:30:55;;;;;;;6.57;4.07;;;22.00;70.70;;;;;;4981277;28;20978;-44
2021/08/16 02:33:22;;;;;;;6.13;4.60;;;22.10;70.40;;;;;;4975290;28;20513;-44
2021/08/16 02:35:49;;;;;;;7.93;4.20;;;22.00;70.50;;;;;;4969541;28;20976;-44
2021/08/16 02:38:15;;;;;;;4.53;3.20;;;22.00;70.50;;;;;;4981080;28;20451;-43
2021/08/16 02:40:42;;;;;;;7.23;4.47;;;22.10;70.10;;;;;;4973826;28;21178;-43
2021/08/16 02:43:09;;;;;;;5.30;3.80;;;22.10;69.80;;;;;;4965977;28;20845;-43
2021/08/16 02:45:38;;;;;;;5.67;3.57;;;22.00;69.60;;;;;;4970964;28;20464;-43
2021/08/16 02:48:05;;;;;;;6.20;3.43;;;22.00;69.70;;;;;;4964754;28;20553;-46
2021/08/16 02:50:32;;;;;;;8.80;3.30;;;22.00;69.50;;;;;;4968142;28;20488;-47
2021/08/16 02:52:58;;;;;;;4.73;2.90;;;22.00;68.80;;;;;;4990046;28;20453;-47
2021/08/16 02:55:25;;;;;;;6.53;3.63;;;22.00;68.40;;;;;;4973083;28;20494;-46
2021/08/16 02:57:52;;;;;;;3.97;3.57;;;21.90;68.40;;;;;;4972469;28;21068;-46
2021/08/16 03:00:19;;;;;;;4.33;3.33;;;21.90;68.50;;;;;;4969784;28;20923;-46
2021/08/16 03:02:46;;;;;;;5.77;3.30;;;21.90;67.80;;;;;;4968974;28;20462;-46
2021/08/16 03:05:14;;;;;;;8.17;4.13;;;21.80;67.80;;;;;;4975000;28;20470;-46
2021/08/16 03:07:41;;;;;;;5.20;3.30;;;21.80;67.70;;;;;;4972053;28;20458;-46
2021/08/16 03:10:11;;;;;;;4.97;3.30;;;21.80;67.60;;;;;;4975578;28;20453;-46
2021/08/16 03:12:38;;;;;;;4.93;2.80;;;21.80;67.30;;;;;;4974120;28;20994;-46
2021/08/16 03:15:06;;;;;;;4.60;2.73;;;21.80;67.00;;;;;;4967178;28;20470;-46
2021/08/16 03:17:33;;;;;;;5.83;2.30;;;21.70;66.60;;;;;;4971808;28;20495;-46
2021/08/16 03:20:00;;;;;;;5.03;3.53;;;21.70;65.80;;;;;;4965354;28;20489;-46
2021/08/16 03:22:27;;;;;;;5.87;3.10;;;21.70;65.50;;;;;;4962371;28;20465;-46
2021/08/16 03:24:53;;;;;;;5.50;2.33;;;21.70;65.40;;;;;;4984740;28;20840;-46
2021/08/16 03:27:20;;;;;;;3.83;2.50;;;21.70;64.30;;;;;;4977538;28;20483;-46
2021/08/16 03:29:47;;;;;;;5.10;2.83;;;21.70;64.40;;;;;;4985082;28;20492;-46
2021/08/16 03:32:14;;;;;;;5.47;3.00;;;21.70;63.70;;;;;;4959838;28;20496;-47
2021/08/16 03:34:41;;;;;;;5.20;2.40;;;21.70;63.20;;;;;;4972199;28;20944;-46
2021/08/16 03:37:08;;;;;;;3.30;2.37;;;21.60;63.30;;;;;;4970754;28;20861;-46
2021/08/16 03:39:35;;;;;;;2.63;2.40;;;21.60;62.50;;;;;;4981872;28;20826;-46
2021/08/16 03:42:02;;;;;;;3.83;2.53;;;21.60;62.80;;;;;;4979893;28;21070;-46
2021/08/16 03:44:29;;;;;;;3.70;2.60;;;21.50;62.80;;;;;;4974613;28;20470;-46
2021/08/16 03:46:55;;;;;;;5.50;2.00;;;21.50;62.40;;;;;;4986837;28;20470;-46
2021/08/16 03:49:22;;;;;;;4.00;2.43;;;21.40;62.00;;;;;;4971701;28;20488;-46
2021/08/16 03:51:49;;;;;;;7.73;2.17;;;21.40;61.90;;;;;;4966305;28;20492;-46
2021/08/16 03:54:15;;;;;;;5.00;2.00;;;21.40;61.50;;;;;;4968642;28;20823;-46
2021/08/16 03:56:42;;;;;;;2.40;2.10;;;21.40;61.80;;;;;;4974979;28;20485;-46
2021/08/16 03:59:09;;;;;;;3.47;2.37;;;21.40;62.20;;;;;;4973804;28;20523;-46
2021/08/16 04:01:36;;;;;;;3.77;2.27;;;21.40;62.50;;;;;;4976723;28;20450;-46
2021/08/16 04:04:02;;;;;;;2.53;1.90;;;21.40;62.90;;;;;;4967000;28;20463;-46
2021/08/16 04:06:29;;;;;;;5.40;2.60;;;21.40;63.00;;;;;;4979879;28;20520;-46
2021/08/16 04:08:56;;;;;;;2.90;2.50;;;21.40;63.10;;;;;;4982947;28;20466;-46
2021/08/16 04:11:25;;;;;;;4.47;2.37;;;21.30;62.90;;;;;;4977428;28;21964;-46
2021/08/16 04:13:52;;;;;;;4.40;2.90;;;21.30;63.60;;;;;;4976912;28;20465;-46
2021/08/16 04:16:19;;;;;;;4.50;3.13;;;21.30;64.50;;;;;;4976965;28;20497;-46
2021/08/16 04:18:46;;;;;;;3.97;2.07;;;21.30;65.10;;;;;;4969582;28;20464;-46
2021/08/16 04:21:13;;;;;;;4.23;2.97;;;21.30;65.60;;;;;;4973498;28;20875;-46
2021/08/16 04:23:39;;;;;;;7.07;2.90;;;21.30;66.00;;;;;;4971311;28;20470;-46
2021/08/16 04:26:06;;;;;;;5.80;2.67;;;21.20;65.90;;;;;;4976450;28;20488;-46
2021/08/16 04:28:33;;;;;;;3.13;2.60;;;21.20;66.10;;;;;;4984803;28;20477;-46
2021/08/16 04:31:00;;;;;;;5.50;2.57;;;21.20;66.00;;;;;;4980949;28;20469;-46
2021/08/16 04:33:29;;;;;;;5.87;2.97;;;21.20;65.80;;;;;;4975396;28;20990;-46
2021/08/16 04:35:56;;;;;;;5.23;2.83;;;21.20;65.60;;;;;;4976490;28;20582;-46
2021/08/16 04:38:23;;;;;;;4.10;3.00;;;21.20;65.20;;;;;;4978792;28;20454;-46
2021/08/16 04:40:53;;;;;;;5.23;2.53;;;21.10;65.00;;;;;;4978060;28;20457;-46
2021/08/16 04:43:22;;;;;;;3.27;2.00;;;21.10;64.50;;;;;;4969218;28;20459;-46
2021/08/16 04:45:49;;;;;;;3.73;2.10;;;21.10;64.20;;;;;;4968015;28;20799;-46
2021/08/16 04:48:16;;;;;;;4.63;2.00;;;21.00;64.10;;;;;;4976144;28;20542;-46
2021/08/16 04:50:43;;;;;;;4.30;2.20;;;21.00;63.50;;;;;;4975580;28;20512;-47
2021/08/16 04:53:10;;;;;;;6.20;2.77;;;21.00;62.50;;;;;;4963155;28;20462;-46
2021/08/16 04:55:37;;;;;;;3.60;1.97;;;20.90;62.30;;;;;;4972560;28;20477;-46
2021/08/16 04:58:04;;;;;;;2.43;2.00;;;20.90;62.20;;;;;;4969563;28;20566;-46
2021/08/16 05:00:33;;;;;;;8.27;2.40;;;20.90;62.20;;;;;;4973086;28;20466;-46
2021/08/16 05:03:01;;;;;;;3.10;2.10;;;20.80;62.50;;;;;;4970485;28;20549;-46
2021/08/16 05:05:32;;;;;;;3.93;2.20;;;20.80;62.70;;;;;;4977145;28;20466;-46
2021/08/16 05:08:01;;;;;;;2.40;1.77;;;20.80;62.70;;;;;;4968109;28;21116;-46
2021/08/16 05:10:29;;;;;;;4.87;1.97;;;20.80;63.30;;;;;;4973189;28;20450;-46
2021/08/16 05:13:01;;;;;;;2.47;2.27;;;20.80;62.20;;;;;;4972140;28;20489;-46
2021/08/16 05:15:27;;;;;;;2.50;1.73;;;20.70;63.20;;;;;;4974097;28;20454;-46
2021/08/16 05:17:54;;;;;;;2.67;1.50;;;20.70;62.90;;;;;;4967220;28;20562;-46
2021/08/16 05:20:22;;;;;;;4.90;1.90;;;20.70;62.80;;;;;;4967365;28;20462;-46
2021/08/16 05:22:50;;;;;;;4.53;1.53;;;20.60;62.70;;;;;;4973951;28;20550;-46
2021/08/16 05:25:18;;;;;;;6.00;2.00;;;20.60;63.20;;;;;;4985646;28;20466;-46
2021/08/16 05:27:46;;;;;;;6.00;1.67;;;20.60;62.10;;;;;;4976232;28;20569;-46
2021/08/16 05:30:15;;;;;;;5.87;2.43;;;20.60;62.20;;;;;;4974444;28;20538;-46
2021/08/16 05:32:42;;;;;;;2.50;2.00;;;20.50;62.60;;;;;;4977536;28;20549;-46
2021/08/16 05:35:10;;;;;;;7.00;1.97;;;20.50;62.90;;;;;;4981093;28;21021;-46
2021/08/16 05:37:36;;;;;;;3.83;1.90;;;20.50;62.80;;;;;;5001526;28;20994;-46
2021/08/16 05:40:04;;;;;;;3.63;1.80;;;20.50;62.50;;;;;;4975366;28;20454;-46
2021/08/16 05:42:31;;;;;;;7.73;2.00;;;20.50;62.60;;;;;;4975036;28;20452;-46
2021/08/16 05:44:58;;;;;;;6.00;2.03;;;20.50;62.20;;;;;;4966047;28;20454;-46
2021/08/16 05:47:25;;;;;;;3.97;2.20;;;20.50;62.20;;;;;;4982940;28;20827;-43
2021/08/16 05:49:53;;;;;;;4.30;1.83;;;20.50;61.70;;;;;;4985358;28;20843;-44
2021/08/16 05:52:20;;;;;;;5.17;2.17;;;20.50;62.60;;;;;;4971278;28;20459;-46
2021/08/16 05:54:49;;;;;;;4.70;2.50;;;20.50;62.20;;;;;;4992773;28;20449;-46
2021/08/16 05:57:16;;;;;;;2.50;1.63;;;20.50;62.20;;;;;;4970162;28;20497;-43
2021/08/16 05:59:44;;;;;;;2.90;1.57;;;20.50;61.60;;;;;;4986519;28;20446;-43
2021/08/16 06:02:10;;;;;;;2.53;1.60;;;20.50;61.90;;;;;;4977115;28;20456;-43
2021/08/16 06:04:37;;;;;;;3.43;1.50;;;20.50;61.90;;;;;;4978961;28;20696;-43
2021/08/16 06:07:04;;;;;;;6.47;1.70;;;20.50;61.80;;;;;;4968480;28;21096;-43
2021/08/16 06:09:31;;;;;;;6.20;2.67;;;20.50;61.70;;;;;;4978552;28;20516;-43
2021/08/16 06:11:58;;;;;;;12.53;3.03;;;20.50;61.80;;;;;;4975107;28;20466;-43
2021/08/16 06:14:25;;;;;;;2.10;1.70;;;20.50;61.90;;;;;;4972797;28;20477;-43
2021/08/16 06:16:54;;;;;;;9.93;1.93;;;20.60;61.20;;;;;;4973389;28;20497;-43
2021/08/16 06:19:20;;;;;;;7.40;2.00;;;20.60;62.20;;;;;;4974874;28;20830;-44
2021/08/16 06:21:47;;;;;;;4.80;1.97;;;20.60;61.30;;;;;;4963403;28;20458;-43
2021/08/16 06:24:14;;;;;;;3.23;1.37;;;20.60;61.80;;;;;;4974259;28;20831;-43
2021/08/16 06:26:41;;;;;;;3.47;1.60;;;20.60;61.40;;;;;;4972173;28;20561;-44
2021/08/16 06:29:08;;;;;;;3.33;1.60;;;20.60;61.40;;;;;;4988992;28;20493;-43
2021/08/16 06:31:34;;;;;;;5.27;2.00;;;20.70;61.70;;;;;;4969905;28;20484;-44
2021/08/16 06:34:03;;;;;;;3.57;1.33;;;20.70;61.30;;;;;;4976403;28;20840;-44
2021/08/16 06:36:30;;;;;;;3.03;1.50;;;20.70;60.80;;;;;;4971898;28;20497;-43
2021/08/16 06:38:57;;;;;;;3.40;1.43;;;20.70;60.80;;;;;;4969907;28;20829;-43
2021/08/16 06:41:24;;;;;;;3.90;1.80;;;20.70;60.90;;;;;;4976665;28;20465;-44
2021/08/16 06:43:50;;;;;;;2.90;1.60;;;20.70;61.30;;;;;;4974865;28;20447;-43
2021/08/16 06:46:17;;;;;;;3.77;1.90;;;20.80;61.40;;;;;;4974990;28;20454;-43
2021/08/16 06:48:44;;;;;;;4.53;1.87;;;20.90;61.60;;;;;;4973918;28;20545;-43
2021/08/16 06:51:11;;;;;;;1.83;0.90;;;20.90;61.20;;;;;;4972483;28;20944;-43
2021/08/16 06:53:38;;;;;;;2.60;1.23;;;21.00;61.20;;;;;;4980370;28;20572;-43
2021/08/16 06:56:05;;;;;;;2.70;1.40;;;21.00;61.40;;;;;;4958463;28;20488;-43
2021/08/16 06:58:33;;;;;;;1.60;0.90;;;21.10;60.60;;;;;;4975428;28;20635;-43
2021/08/16 07:01:02;;;;;;;3.07;1.20;;;21.10;60.20;;;;;;4977751;28;20860;-44
2021/08/16 07:03:29;;;;;;;3.57;1.00;;;21.20;60.20;;;;;;4998903;28;20447;-43
2021/08/16 07:05:56;;;;;;;1.70;1.00;;;21.20;60.30;;;;;;4977727;28;20494;-43
2021/08/16 07:08:23;;;;;;;6.23;1.90;;;21.30;60.80;;;;;;4989347;28;20479;-43
2021/08/16 07:10:50;;;;;;;1.93;1.00;;;21.30;59.70;;;;;;4997982;28;20511;-43
2021/08/16 07:13:17;;;;;;;1.80;1.10;;;21.30;60.10;;;;;;4982371;28;20458;-43
2021/08/16 07:15:44;;;;;;;3.33;1.53;;;21.40;59.90;;;;;;4987051;28;20458;-43
2021/08/16 07:18:11;;;;;;;1.30;0.97;;;21.40;59.80;;;;;;4967075;28;20498;-43
2021/08/16 07:20:38;;;;;;;2.77;1.30;;;21.40;59.50;;;;;;4951512;28;20473;-43
2021/08/16 07:23:04;;;;;;;2.77;1.30;;;21.40;59.50;;;;;;4957333;28;20950;-43
2021/08/16 07:25:31;;;;;;;1.60;1.00;;;21.40;59.70;;;;;;4998204;28;20493;-43
2021/08/16 07:27:58;;;;;;;1.90;0.90;;;21.30;59.90;;;;;;4979758;28;20982;-43
2021/08/16 07:30:24;;;;;;;1.77;1.23;;;21.30;60.00;;;;;;4973998;28;20970;-43
2021/08/16 07:32:51;;;;;;;2.57;1.13;;;21.30;60.60;;;;;;4973705;28;20461;-43
2021/08/16 07:35:20;;;;;;;5.00;1.47;;;21.30;60.70;;;;;;4973438;28;20453;-43
2021/08/16 07:37:47;;;;;;;1.70;0.80;;;21.30;60.20;;;;;;5007338;28;20474;-43
2021/08/16 07:40:15;;;;;;;2.13;1.10;;;21.30;60.30;;;;;;4968494;28;20511;-43
2021/08/16 07:42:41;;;;;;;3.83;1.00;;;21.30;60.00;;;;;;4997579;28;20533;-43
2021/08/16 07:45:09;;;;;;;1.90;1.00;;;21.30;60.50;;;;;;4983804;28;20458;-43
2021/08/16 07:47:36;;;;;;;1.43;1.17;;;21.30;60.60;;;;;;4974329;28;20462;-43
2021/08/16 07:50:06;;;;;;;2.30;1.13;;;21.30;61.10;;;;;;4977144;28;20469;-43
2021/08/16 07:52:41;;;;;;;2.87;0.90;;;21.30;60.60;;;;;;4971848;28;20532;-43
2021/08/16 07:55:09;;;;;;;2.63;1.00;;;21.30;60.60;;;;;;4968982;28;20462;-43
2021/08/16 07:57:36;;;;;;;1.97;1.20;;;21.30;60.20;;;;;;4982501;28;20485;-43
2021/08/16 08:00:08;;;;;;;3.90;1.00;;;21.30;60.40;;;;;;5009506;28;20776;-43
2021/08/16 08:02:42;;;;;;;5.67;1.47;;;21.30;60.80;;;;;;4971393;28;20456;-43
2021/08/16 08:05:15;;;;;;;3.30;1.43;;;21.30;60.80;;;;;;4975414;28;20464;-43
2021/08/16 08:07:42;;;;;;;2.43;1.00;;;21.40;60.70;;;;;;4977913;28;20461;-43
2021/08/16 08:10:11;;;;;;;2.67;0.97;;;21.40;60.80;;;;;;4986324;28;20988;-43
2021/08/16 08:12:38;;;;;;;2.00;1.00;;;21.40;60.80;;;;;;4979992;28;20825;-43
2021/08/16 08:15:08;;;;;;;2.03;0.80;;;21.40;60.80;;;;;;4985071;28;20445;-43
2021/08/16 08:17:35;;;;;;;2.67;0.80;;;21.40;60.30;;;;;;4969313;28;20496;-43
2021/08/16 08:20:05;;;;;;;1.83;0.80;;;21.40;60.30;;;;;;4971360;28;20454;-43
2021/08/16 08:22:32;;;;;;;2.60;0.83;;;21.40;60.50;;;;;;4973135;28;20454;-43
2021/08/16 08:24:59;;;;;;;1.70;1.10;;;21.50;60.60;;;;;;4979373;28;20532;-43
2021/08/16 08:27:26;;;;;;;1.23;0.90;;;21.50;60.60;;;;;;4987983;28;20501;-43
2021/08/16 08:29:53;;;;;;;1.53;1.10;;;21.50;60.40;;;;;;4969046;28;20820;-44
2021/08/16 08:32:20;;;;;;;2.10;1.10;;;21.50;61.10;;;;;;4971949;28;20481;-44
2021/08/16 08:34:47;;;;;;;2.23;0.80;;;21.50;61.20;;;;;;5002304;28;20821;-43
2021/08/16 08:37:14;;;;;;;7.10;1.97;;;21.60;60.30;;;;;;4967936;28;20482;-43
2021/08/16 08:39:46;;;;;;;3.33;1.17;;;21.60;60.30;;;;;;4982162;28;20447;-43
2021/08/16 08:42:14;;;;;;;2.30;1.10;;;21.60;60.10;;;;;;4969625;28;20447;-43
2021/08/16 08:44:42;;;;;;;2.37;1.00;;;21.60;60.40;;;;;;4970130;28;20454;-43
2021/08/16 08:47:11;;;;;;;1.73;1.17;;;21.60;60.50;;;;;;4979894;28;20519;-43
2021/08/16 08:49:38;;;;;;;1.40;0.93;;;21.60;60.40;;;;;;4997905;28;20969;-43
2021/08/16 08:52:05;;;;;;;2.20;0.90;;;21.70;60.70;;;;;;4969862;28;20460;-43
2021/08/16 08:54:35;;;;;;;1.70;1.10;;;21.70;60.30;;;;;;4981706;28;20463;-43
2021/08/16 08:57:23;;;;;;;1.57;0.90;;;21.70;60.20;;;;;;5006603;28;21266;-43
2021/08/16 08:59:53;;;;;;;1.97;1.40;;;21.70;60.20;;;;;;4981007;28;20469;-43
2021/08/16 09:02:22;;;;;;;3.60;1.57;;;21.70;60.00;;;;;;4982443;28;20462;-43
2021/08/16 09:04:54;;;;;;;2.67;1.30;;;21.70;60.00;;;;;;4973392;28;20958;-43
2021/08/16 09:07:38;;;;;;;2.30;1.30;;;21.70;60.20;;;;;;4970260;28;20466;-43
2021/08/16 09:10:12;;;;;;;2.67;1.13;;;21.70;60.40;;;;;;4976063;28;20462;-43
2021/08/16 09:12:40;;;;;;;9.93;2.03;;;21.70;61.50;;;;;;4976830;28;20520;-43
2021/08/16 09:15:28;;;;;;;1.97;1.23;;;21.70;60.80;;;;;;4980863;28;20461;-43
2021/08/16 09:18:00;;;;;;;3.57;1.40;;;21.80;60.90;;;;;;4970255;28;20477;-43
2021/08/16 09:20:32;;;;;;;4.60;2.33;;;21.80;60.60;;;;;;4977689;28;20473;-43
2021/08/16 09:23:07;;;;;;;7.37;1.27;;;21.80;60.50;;;;;;4970401;28;21062;-43
2021/08/16 09:25:38;;;;;;;1.97;1.43;;;21.90;60.10;;;;;;4980432;28;20546;-44
2021/08/16 09:28:07;;;;;;;4.47;1.33;;;21.80;60.40;;;;;;4970863;28;20472;-43
2021/08/16 09:30:37;;;;;;;1.93;1.40;;;21.80;60.10;;;;;;4973097;28;20507;-43
2021/08/16 09:33:19;;;;;;;2.40;1.60;;;21.80;60.50;;;;;;4962222;28;20546;-43
2021/08/16 09:35:50;;;;;;;4.97;1.83;;;21.80;60.30;;;;;;4989189;28;20904;-43
2021/08/16 09:38:17;;;;;;;3.83;1.60;;;21.80;60.40;;;;;;4976154;28;20488;-43
2021/08/16 09:40:44;;;;;;;4.73;1.63;;;21.80;61.00;;;;;;4969544;28;20467;-43
2021/08/16 09:43:11;;;;;;;3.53;1.67;;;21.80;61.30;;;;;;4983332;28;20823;-43
2021/08/16 09:45:38;;;;;;;3.60;1.40;;;21.80;60.70;;;;;;4991752;28;20976;-43
2021/08/16 09:48:07;;;;;;;2.13;1.10;;;21.80;61.10;;;;;;4979412;28;20451;-43
2021/08/16 09:50:38;;;;;;;2.80;1.17;;;21.80;61.10;;;;;;4977137;28;20513;-43
2021/08/16 09:53:08;;;;;;;5.47;1.50;;;21.90;61.00;;;;;;4972476;28;21006;-45
2021/08/16 09:55:40;;;;;;;2.20;1.47;;;21.90;60.90;;;;;;4985833;28;20489;-43
2021/08/16 09:58:14;;;;;;;5.73;1.40;;;22.00;61.00;;;;;;4975921;28;20486;-43
2021/08/16 10:00:42;;;;;;;2.77;1.70;;;22.00;61.30;;;;;;4976208;28;20460;-43
2021/08/16 10:03:11;;;;;;;4.17;1.63;;;22.00;60.80;;;;;;4973557;28;20476;-43
2021/08/16 10:05:41;;;;;;;3.37;1.90;;;22.00;60.60;;;;;;4990939;28;20454;-43
2021/08/16 10:08:13;;;;;;;3.63;1.80;;;22.00;60.70;;;;;;4971647;28;20984;-43
2021/08/16 10:10:42;;;;;;;3.47;1.50;;;22.00;60.60;;;;;;4987284;28;20474;-43
2021/08/16 10:13:10;;;;;;;4.07;2.30;;;22.00;61.00;;;;;;4973688;28;20456;-43
2021/08/16 10:15:42;;;;;;;3.13;1.83;;;22.20;61.10;;;;;;4982589;28;20942;-43
2021/08/16 10:18:18;;;;;;;3.40;1.73;;;22.50;60.60;;;;;;4970377;28;21099;-43
2021/08/16 10:20:47;;;;;;;1.90;1.80;;;22.70;58.50;;;;;;4973290;28;20453;-43
2021/08/16 10:23:22;;;;;;;3.40;1.70;;;22.90;58.30;;;;;;4969795;28;20825;-43
2021/08/16 10:25:51;;;;;;;3.20;1.97;;;23.00;58.20;;;;;;4971468;28;20706;-44
2021/08/16 10:28:33;;;;;;;3.80;2.03;;;23.00;58.80;;;;;;4965748;28;20489;-43
2021/08/16 10:31:02;;;;;;;3.63;1.83;;;23.00;58.40;;;;;;4973732;28;20458;-43
2021/08/16 10:33:29;;;;;;;3.80;2.13;;;22.90;58.30;;;;;;5000857;28;20802;-43
2021/08/16 10:35:58;;;;;;;3.20;1.70;;;22.70;58.40;;;;;;4991930;28;20872;-43
2021/08/16 10:39:07;;;;;;;2.70;2.23;;;22.60;58.60;;;;;;4992425;28;20481;-43
2021/08/16 10:41:39;;;;;;;5.67;2.23;;;22.40;59.20;;;;;;4978810;28;20498;-43
2021/08/16 10:44:13;;;;;;;3.10;2.07;;;22.30;58.90;;;;;;4977482;28;21096;-43
2021/08/16 10:46:40;;;;;;;4.00;2.23;;;22.20;59.60;;;;;;4979821;28;20458;-43
2021/08/16 10:49:12;;;;;;;2.83;1.87;;;22.10;60.20;;;;;;4972178;28;20458;-43
2021/08/16 10:51:44;;;;;;;3.10;1.90;;;22.00;60.20;;;;;;4973165;28;20458;-43
2021/08/16 10:54:29;;;;;;;4.60;2.40;;;21.90;60.40;;;;;;4968786;28;20451;-43
2021/08/16 10:56:57;;;;;;;3.80;2.60;;;21.90;60.60;;;;;;4991284;28;20446;-43
2021/08/16 10:59:26;;;;;;;2.60;1.70;;;21.90;61.30;;;;;;4993586;28;20486;-43
2021/08/16 11:01:55;;;;;;;2.70;2.23;;;21.90;61.40;;;;;;4966498;28;21054;-43
2021/08/16 11:04:32;;;;;;;4.70;1.70;;;22.00;60.90;;;;;;4970022;28;20459;-43
2021/08/16 11:07:01;;;;;;;3.50;2.10;;;22.00;60.20;;;;;;4977131;28;20504;-44
2021/08/16 11:09:30;;;;;;;7.07;2.87;;;22.00;60.70;;;;;;4977350;28;20450;-43
2021/08/16 11:12:05;;;;;;;5.17;2.33;;;22.10;60.40;;;;;;4978647;28;20457;-44
2021/08/16 11:14:38;;;;;;;3.13;2.00;;;22.10;60.40;;;;;;4975482;28;20458;-43
2021/08/16 11:17:05;;;;;;;3.43;2.70;;;22.20;60.20;;;;;;4978881;28;20465;-43
2021/08/16 11:19:48;;;;;;;2.70;2.50;;;22.30;60.40;;;;;;4968005;28;20858;-43
2021/08/16 11:22:18;;;;;;;4.60;2.23;;;22.40;60.10;;;;;;4985295;28;20896;-43
2021/08/16 11:24:46;;;;;;;2.67;1.90;;;22.50;59.90;;;;;;4972327;28;20454;-43
2021/08/16 11:27:19;;;;;;;5.77;3.13;;;22.60;59.60;;;;;;4978346;28;20542;-43
2021/08/16 11:30:03;;;;;;;2.90;2.27;;;22.70;59.00;;;;;;4973862;28;20455;-43
2021/08/16 11:32:32;;;;;;;4.77;1.67;;;22.70;59.20;;;;;;4972562;28;20455;-43
2021/08/16 11:34:59;;;;;;;2.97;2.13;;;22.80;58.00;;;;;;4971372;28;20473;-44
2021/08/16 11:37:31;;;;;;;3.67;1.87;;;22.90;57.70;;;;;;4976830;28;20570;-43
2021/08/16 11:40:02;;;;;;;5.53;2.17;;;23.00;57.90;;;;;;4995775;28;20454;-43
2021/08/16 11:42:49;;;;;;;3.27;1.70;;;23.10;57.00;;;;;;4975931;28;20967;-43
2021/08/16 11:45:18;;;;;;;9.33;1.43;;;23.20;57.00;;;;;;4964431;28;20481;-43
2021/08/16 11:47:50;;;;;;;4.33;1.40;;;23.40;55.40;;;;;;4976705;28;20461;-43
2021/08/16 11:50:21;;;;;;;4.37;1.40;;;23.50;54.80;;;;;;4982078;28;20468;-43
2021/08/16 11:52:50;;;;;;;4.67;1.70;;;23.60;56.10;;;;;;4978470;28;20875;-43
2021/08/16 11:55:25;;;;;;;3.50;1.80;;;23.70;55.50;;;;;;4978982;28;20499;-44
2021/08/16 11:57:56;;;;;;;3.57;1.50;;;23.80;55.00;;;;;;4971477;28;20493;-43
2021/08/16 12:00:27;;;;;;;2.60;1.90;;;23.80;54.40;;;;;;4973134;28;20450;-44
2021/08/16 12:02:57;;;;;;;1.40;1.23;;;23.90;53.00;;;;;;4974656;28;20444;-44
2021/08/16 12:05:28;;;;;;;6.00;1.70;;;23.90;54.40;;;;;;4971380;28;20965;-43
2021/08/16 12:07:55;;;;;;;1.77;1.50;;;23.90;53.50;;;;;;4968796;28;20751;-43
2021/08/16 12:10:24;;;;;;;3.53;1.70;;;24.00;53.60;;;;;;4974869;28;20883;-43
2021/08/16 12:12:56;;;;;;;3.23;1.23;;;24.00;53.30;;;;;;4975845;28;20458;-43
2021/08/16 12:15:23;;;;;;;3.57;1.50;;;24.00;54.30;;;;;;4974588;28;20465;-43
2021/08/16 12:17:53;;;;;;;2.67;1.67;;;24.10;54.10;;;;;;4983034;28;21029;-43
2021/08/16 12:20:21;;;;;;;2.87;1.37;;;24.20;53.20;;;;;;4978444;28;20945;-43
2021/08/16 12:22:57;;;;;;;2.83;1.70;;;24.20;53.30;;;;;;4988095;28;20465;-43
2021/08/16 12:25:25;;;;;;;4.40;2.30;;;24.10;53.40;;;;;;4977926;28;20964;-44
2021/08/16 12:28:02;;;;;;;2.87;1.87;;;24.10;53.70;;;;;;4973746;28;20480;-43
2021/08/16 12:30:33;;;;;;;1.83;1.60;;;24.00;54.10;;;;;;4986466;28;20465;-44
2021/08/16 12:33:10;;;;;;;4.50;1.93;;;23.90;54.30;;;;;;4977729;28;20450;-43
2021/08/16 12:35:37;;;;;;;3.27;1.70;;;23.90;54.50;;;;;;4978192;28;20804;-43
2021/08/16 12:38:04;;;;;;;17.87;2.50;;;23.80;54.90;;;;;;4978686;28;20493;-43
2021/08/16 12:40:32;;;;;;;2.80;1.40;;;23.80;54.70;;;;;;4975824;28;20465;-44
2021/08/16 12:43:08;;;;;;;4.63;1.70;;;23.80;55.00;;;;;;4976244;28;20479;-43
2021/08/16 12:45:35;;;;;;;2.33;1.20;;;23.80;55.20;;;;;;4988795;28;20449;-43
2021/08/16 12:48:05;;;;;;;3.23;1.50;;;23.80;54.70;;;;;;4985977;28;20442;-43
2021/08/16 12:50:34;;;;;;;4.43;1.80;;;23.80;54.80;;;;;;4967684;28;20458;-43
2021/08/16 12:53:04;;;;;;;2.73;1.50;;;23.90;55.30;;;;;;4980200;28;20541;-43
2021/08/16 12:55:31;;;;;;;2.33;1.10;;;23.90;55.00;;;;;;4982397;28;20448;-43